This is the latest recevied weather packets stored in our database for station/object DL5TW-13. If no packets are shown the sender has not sent any weather packets the latest 1 day(s).
| Time | Temp. | Humidity | Pressure | Rain* | Wind** | Luminosity | Snow |
|---|---|---|---|---|---|---|---|
| 1778074585 | 23.33° C | 46% | 1000.2 hPa | 0 mm | - | - | - |
| 1778073984 | 23.89° C | 45% | 1000.1 hPa | 0 mm | - | - | - |
| 1778073684 | 23.33° C | 46% | 1000.1 hPa | 0 mm | - | - | - |
| 1778073384 | 23.33° C | 45% | 1000.4 hPa | 0 mm | - | - | - |
| 1778072483 | 22.78° C | 48% | 1000.2 hPa | 0 mm | - | - | - |
| 1778071582 | 21.67° C | 48% | 1000.4 hPa | 0 mm | - | - | - |
| 1778071282 | 22.22° C | 48% | 1000.4 hPa | 0 mm | - | - | - |
| 1778070381 | 22.22° C | 47% | 1000.4 hPa | 0 mm | - | - | - |
| 1778069480 | 22.22° C | 47% | 1000.1 hPa | 0 mm | - | - | - |
| 1778069180 | 22.78° C | 48% | 1000.2 hPa | 0 mm | - | - | - |
| 1778068579 | 22.22° C | 49% | 1000.3 hPa | 0 mm | - | - | - |
| 1778068279 | 22.22° C | 49% | 1000.4 hPa | 0 mm | - | - | - |
| 1778067378 | 21.11° C | 52% | 1000.2 hPa | 0 mm | - | - | - |
| 1778067078 | 20.56° C | 55% | 1000.3 hPa | 0 mm | - | - | - |
| 1778066477 | 20° C | 57% | 1000.5 hPa | 0 mm | - | - | - |
| 1778066177 | 18.89° C | 57% | 1000.7 hPa | 0 mm | - | - | - |
| 1778065576 | 20° C | 55% | 1000.6 hPa | 0 mm | - | - | - |
| 1778065276 | 20° C | 56% | 1000.6 hPa | 0 mm | - | - | - |
| 1778064976 | 19.44° C | 56% | 1000.5 hPa | 0 mm | - | - | - |
| 1778064375 | 20° C | 57% | 1000.6 hPa | 0 mm | - | - | - |
| 1778064075 | 20° C | 57% | 1000.4 hPa | 0 mm | - | - | - |
| 1778063174 | 17.78° C | 64% | 1000.6 hPa | 0 mm | - | - | - |
| 1778062874 | 17.22° C | 64% | 1000.7 hPa | 0 mm | - | - | - |
| 1778062273 | 17.22° C | 64% | 1000.8 hPa | 0 mm | - | - | - |
| 1778061973 | 16.67° C | 63% | 1000.8 hPa | 0 mm | - | - | - |
* Rain latest hour (hover to see other rain measurements)
** Current wind speed in m/s (hover to see current wind gust speed)